Terminal Aerodrome Forecast
Issued by NWS

Home | Current Version | Previous Version | Text Only | Print | Product List | Glossary Off
Versions: 1 2 3 4 5 6 7 8 9 10 11 12 13 14 15 16 17 18 19 20 21 22 23 24 25 26 27 28 29 30 31 32 33 34 35 36 37 38 39 40 41 42 43 44 45 46 47 48 49 50

000
FTUS43 KLOT 251730
TAFGYY
TAF
KGYY 251730Z 2518/2618 15010KT P6SM BKN250
     FM252100 15014G20KT P6SM FEW040 BKN180
     FM260100 17010KT P6SM SCT050 BKN150
     FM261000 17010KT P6SM VCSH SCT020 BKN050
     FM261700 18014G20KT P6SM VCSH SCT015 BKN040 PROB30 2617/2618
      4SM -TSRA BKN035CB=

USA.gov is the U.S. government's official web portal to all federal, state and local government web resources and services.